sensor_id;sensor_type;location;lat;lon;timestamp;temperature;humidity
9425;DHT22;17139;52.140;11.636;2023-01-10T00:00:22;5.30;68.30
9425;DHT22;17139;52.140;11.636;2023-01-10T00:02:49;5.20;68.30
9425;DHT22;17139;52.140;11.636;2023-01-10T00:05:17;5.20;68.40
9425;DHT22;17139;52.140;11.636;2023-01-10T00:07:44;5.20;68.60
9425;DHT22;17139;52.140;11.636;2023-01-10T00:10:12;5.20;68.50
9425;DHT22;17139;52.140;11.636;2023-01-10T00:12:39;5.20;68.40
9425;DHT22;17139;52.140;11.636;2023-01-10T00:15:25;5.20;68.40
9425;DHT22;17139;52.140;11.636;2023-01-10T00:17:52;5.30;68.50
9425;DHT22;17139;52.140;11.636;2023-01-10T00:20:19;5.30;68.40
9425;DHT22;17139;52.140;11.636;2023-01-10T00:22:47;5.60;68.30
9425;DHT22;17139;52.140;11.636;2023-01-10T00:25:15;5.60;67.60
9425;DHT22;17139;52.140;11.636;2023-01-10T00:27:44;5.50;67.70
9425;DHT22;17139;52.140;11.636;2023-01-10T00:30:14;5.30;68.00
9425;DHT22;17139;52.140;11.636;2023-01-10T00:32:43;5.30;68.30
9425;DHT22;17139;52.140;11.636;2023-01-10T00:35:11;5.20;68.50
9425;DHT22;17139;52.140;11.636;2023-01-10T00:37:39;5.20;68.60
9425;DHT22;17139;52.140;11.636;2023-01-10T00:40:08;5.20;68.60
9425;DHT22;17139;52.140;11.636;2023-01-10T00:42:36;5.30;68.70
9425;DHT22;17139;52.140;11.636;2023-01-10T00:45:21;5.20;68.50
9425;DHT22;17139;52.140;11.636;2023-01-10T00:47:51;5.20;68.50
9425;DHT22;17139;52.140;11.636;2023-01-10T00:50:18;5.10;68.50
9425;DHT22;17139;52.140;11.636;2023-01-10T00:52:45;5.10;68.70
9425;DHT22;17139;52.140;11.636;2023-01-10T00:55:12;5.20;68.60
9425;DHT22;17139;52.140;11.636;2023-01-10T00:57:39;5.10;68.30
9425;DHT22;17139;52.140;11.636;2023-01-10T01:00:08;4.90;68.50
9425;DHT22;17139;52.140;11.636;2023-01-10T01:02:36;4.90;68.80
9425;DHT22;17139;52.140;11.636;2023-01-10T01:05:06;4.80;68.80
9425;DHT22;17139;52.140;11.636;2023-01-10T01:07:33;4.90;68.90
9425;DHT22;17139;52.140;11.636;2023-01-10T01:10:00;4.90;68.80
9425;DHT22;17139;52.140;11.636;2023-01-10T01:12:45;4.90;68.80
9425;DHT22;17139;52.140;11.636;2023-01-10T01:15:12;4.90;68.80
9425;DHT22;17139;52.140;11.636;2023-01-10T01:17:39;4.80;68.70
9425;DHT22;17139;52.140;11.636;2023-01-10T01:20:09;4.80;68.80
9425;DHT22;17139;52.140;11.636;2023-01-10T01:22:36;5.10;68.80
9425;DHT22;17139;52.140;11.636;2023-01-10T01:25:04;5.60;67.40
9425;DHT22;17139;52.140;11.636;2023-01-10T01:27:31;5.40;66.80
9425;DHT22;17139;52.140;11.636;2023-01-10T01:29:59;5.20;67.60
9425;DHT22;17139;52.140;11.636;2023-01-10T01:32:27;5.00;68.10
9425;DHT22;17139;52.140;11.636;2023-01-10T01:34:54;4.90;68.60
9425;DHT22;17139;52.140;11.636;2023-01-10T01:37:22;4.80;68.70
9425;DHT22;17139;52.140;11.636;2023-01-10T01:39:49;4.80;68.80
9425;DHT22;17139;52.140;11.636;2023-01-10T01:42:23;4.80;68.80
9425;DHT22;17139;52.140;11.636;2023-01-10T01:47:58;4.90;68.70
9425;DHT22;17139;52.140;11.636;2023-01-10T01:50:33;5.40;68.00
9425;DHT22;17139;52.140;11.636;2023-01-10T01:53:09;5.20;67.30
9425;DHT22;17139;52.140;11.636;2023-01-10T01:55:38;5.00;67.90
9425;DHT22;17139;52.140;11.636;2023-01-10T01:58:10;4.80;68.30
9425;DHT22;17139;52.140;11.636;2023-01-10T02:00:39;5.50;67.50
9425;DHT22;17139;52.140;11.636;2023-01-10T02:03:06;5.20;67.10
9425;DHT22;17139;52.140;11.636;2023-01-10T02:05:37;5.00;67.70
9425;DHT22;17139;52.140;11.636;2023-01-10T02:08:06;4.90;68.20
9425;DHT22;17139;52.140;11.636;2023-01-10T02:10:37;4.80;68.40
9425;DHT22;17139;52.140;11.636;2023-01-10T02:13:08;4.80;68.60
9425;DHT22;17139;52.140;11.636;2023-01-10T02:15:35;4.90;68.80
9425;DHT22;17139;52.140;11.636;2023-01-10T02:18:03;4.90;68.70
9425;DHT22;17139;52.140;11.636;2023-01-10T02:20:36;4.90;68.50
9425;DHT22;17139;52.140;11.636;2023-01-10T02:26:50;5.00;68.40
9425;DHT22;17139;52.140;11.636;2023-01-10T02:32:37;5.10;68.20
9425;DHT22;17139;52.140;11.636;2023-01-10T02:35:14;5.50;67.50
9425;DHT22;17139;52.140;11.636;2023-01-10T02:37:52;5.40;66.90
9425;DHT22;17139;52.140;11.636;2023-01-10T02:40:29;5.30;67.50
9425;DHT22;17139;52.140;11.636;2023-01-10T02:43:04;5.20;67.80
9425;DHT22;17139;52.140;11.636;2023-01-10T02:45:35;5.20;68.00
9425;DHT22;17139;52.140;11.636;2023-01-10T02:48:05;5.10;67.90
9425;DHT22;17139;52.140;11.636;2023-01-10T02:50:51;5.10;68.00
9425;DHT22;17139;52.140;11.636;2023-01-10T02:53:23;5.10;68.00
9425;DHT22;17139;52.140;11.636;2023-01-10T02:56:19;5.10;68.20
9425;DHT22;17139;52.140;11.636;2023-01-10T02:59:04;5.10;68.20
9425;DHT22;17139;52.140;11.636;2023-01-10T03:01:36;5.00;68.30
9425;DHT22;17139;52.140;11.636;2023-01-10T03:04:18;5.70;67.10
9425;DHT22;17139;52.140;11.636;2023-01-10T03:06:51;5.50;66.90
9425;DHT22;17139;52.140;11.636;2023-01-10T03:09:25;5.30;67.40
9425;DHT22;17139;52.140;11.636;2023-01-10T03:12:00;6.00;66.40
9425;DHT22;17139;52.140;11.636;2023-01-10T03:14:31;5.70;66.30
9425;DHT22;17139;52.140;11.636;2023-01-10T03:17:02;5.50;66.90
9425;DHT22;17139;52.140;11.636;2023-01-10T03:19:36;5.40;67.50
9425;DHT22;17139;52.140;11.636;2023-01-10T03:22:05;5.30;67.70
9425;DHT22;17139;52.140;11.636;2023-01-10T03:24:38;5.30;67.90
9425;DHT22;17139;52.140;11.636;2023-01-10T03:27:09;5.20;68.00
9425;DHT22;17139;52.140;11.636;2023-01-10T03:29:43;5.20;68.00
9425;DHT22;17139;52.140;11.636;2023-01-10T03:32:13;5.10;68.10
9425;DHT22;17139;52.140;11.636;2023-01-10T03:34:42;5.10;68.30
9425;DHT22;17139;52.140;11.636;2023-01-10T03:37:13;5.10;68.30
9425;DHT22;17139;52.140;11.636;2023-01-10T03:39:51;5.10;68.30
9425;DHT22;17139;52.140;11.636;2023-01-10T03:42:25;5.10;68.40
9425;DHT22;17139;52.140;11.636;2023-01-10T03:44:58;5.80;66.80
9425;DHT22;17139;52.140;11.636;2023-01-10T03:47:32;5.70;66.60
9425;DHT22;17139;52.140;11.636;2023-01-10T03:50:04;5.40;67.10
9425;DHT22;17139;52.140;11.636;2023-01-10T03:52:33;5.30;67.70
9425;DHT22;17139;52.140;11.636;2023-01-10T03:55:01;5.20;67.90
9425;DHT22;17139;52.140;11.636;2023-01-10T03:57:30;5.10;67.90
9425;DHT22;17139;52.140;11.636;2023-01-10T03:59:57;5.10;68.10
9425;DHT22;17139;52.140;11.636;2023-01-10T04:02:26;5.00;68.30
9425;DHT22;17139;52.140;11.636;2023-01-10T04:04:53;5.00;68.40
9425;DHT22;17139;52.140;11.636;2023-01-10T04:07:22;4.90;68.40
9425;DHT22;17139;52.140;11.636;2023-01-10T04:09:49;4.90;68.50
9425;DHT22;17139;52.140;11.636;2023-01-10T04:12:16;4.80;68.60
9425;DHT22;17139;52.140;11.636;2023-01-10T04:14:43;5.00;68.40
9425;DHT22;17139;52.140;11.636;2023-01-10T04:17:11;5.10;67.90
9425;DHT22;17139;52.140;11.636;2023-01-10T04:19:38;5.00;67.60
9425;DHT22;17139;52.140;11.636;2023-01-10T04:22:05;4.90;68.10
9425;DHT22;17139;52.140;11.636;2023-01-10T04:24:33;4.90;68.50
9425;DHT22;17139;52.140;11.636;2023-01-10T04:27:00;4.90;68.60
9425;DHT22;17139;52.140;11.636;2023-01-10T04:29:27;4.90;68.50
9425;DHT22;17139;52.140;11.636;2023-01-10T04:31:54;4.90;68.30
9425;DHT22;17139;52.140;11.636;2023-01-10T04:34:22;4.90;68.30
9425;DHT22;17139;52.140;11.636;2023-01-10T04:36:49;4.80;68.30
9425;DHT22;17139;52.140;11.636;2023-01-10T04:39:16;4.70;68.40
9425;DHT22;17139;52.140;11.636;2023-01-10T04:41:44;4.60;68.50
9425;DHT22;17139;52.140;11.636;2023-01-10T04:44:11;4.70;68.60
9425;DHT22;17139;52.140;11.636;2023-01-10T04:46:38;4.80;68.10
9425;DHT22;17139;52.140;11.636;2023-01-10T04:49:05;4.80;67.90
9425;DHT22;17139;52.140;11.636;2023-01-10T04:51:33;4.60;68.20
9425;DHT22;17139;52.140;11.636;2023-01-10T04:54:00;4.50;68.50
9425;DHT22;17139;52.140;11.636;2023-01-10T04:56:27;4.40;68.80
9425;DHT22;17139;52.140;11.636;2023-01-10T04:58:55;4.40;68.90
9425;DHT22;17139;52.140;11.636;2023-01-10T05:01:23;4.40;69.00
9425;DHT22;17139;52.140;11.636;2023-01-10T05:03:53;4.30;68.90
9425;DHT22;17139;52.140;11.636;2023-01-10T05:06:21;4.30;69.60
9425;DHT22;17139;52.140;11.636;2023-01-10T05:08:48;4.30;69.00
9425;DHT22;17139;52.140;11.636;2023-01-10T05:11:15;4.40;69.00
9425;DHT22;17139;52.140;11.636;2023-01-10T05:13:42;4.70;68.80
9425;DHT22;17139;52.140;11.636;2023-01-10T05:16:11;4.80;68.10
9425;DHT22;17139;52.140;11.636;2023-01-10T05:18:38;4.70;68.10
9425;DHT22;17139;52.140;11.636;2023-01-10T05:21:06;4.70;68.30
9425;DHT22;17139;52.140;11.636;2023-01-10T05:23:34;4.70;68.40
9425;DHT22;17139;52.140;11.636;2023-01-10T05:26:05;4.80;68.40
9425;DHT22;17139;52.140;11.636;2023-01-10T05:28:32;4.80;68.50
9425;DHT22;17139;52.140;11.636;2023-01-10T05:30:59;5.30;67.70
9425;DHT22;17139;52.140;11.636;2023-01-10T05:33:28;5.80;66.40
9425;DHT22;17139;52.140;11.636;2023-01-10T05:35:55;5.60;66.40
9425;DHT22;17139;52.140;11.636;2023-01-10T05:38:22;5.40;66.80
9425;DHT22;17139;52.140;11.636;2023-01-10T05:40:53;5.20;67.40
9425;DHT22;17139;52.140;11.636;2023-01-10T05:43:21;5.20;67.80
9425;DHT22;17139;52.140;11.636;2023-01-10T05:45:48;5.10;67.90
9425;DHT22;17139;52.140;11.636;2023-01-10T05:48:15;5.20;68.00
9425;DHT22;17139;52.140;11.636;2023-01-10T05:50:45;6.00;66.10
9425;DHT22;17139;52.140;11.636;2023-01-10T05:53:12;6.30;65.20
9425;DHT22;17139;52.140;11.636;2023-01-10T05:55:39;6.00;65.60
9425;DHT22;17139;52.140;11.636;2023-01-10T05:58:06;5.70;66.60
9425;DHT22;17139;52.140;11.636;2023-01-10T06:00:35;5.50;67.00
9425;DHT22;17139;52.140;11.636;2023-01-10T06:03:03;5.30;67.60
9425;DHT22;17139;52.140;11.636;2023-01-10T06:05:30;5.30;67.90
9425;DHT22;17139;52.140;11.636;2023-01-10T06:07:58;5.30;68.00
9425;DHT22;17139;52.140;11.636;2023-01-10T06:10:25;5.30;68.10
9425;DHT22;17139;52.140;11.636;2023-01-10T06:12:52;5.30;68.10
9425;DHT22;17139;52.140;11.636;2023-01-10T06:15:19;5.30;68.10
9425;DHT22;17139;52.140;11.636;2023-01-10T06:17:46;5.80;67.20
9425;DHT22;17139;52.140;11.636;2023-01-10T06:20:13;6.30;66.00
9425;DHT22;17139;52.140;11.636;2023-01-10T06:22:41;6.10;66.00
9425;DHT22;17139;52.140;11.636;2023-01-10T06:25:11;5.80;66.60
9425;DHT22;17139;52.140;11.636;2023-01-10T06:27:38;5.70;67.10
9425;DHT22;17139;52.140;11.636;2023-01-10T06:30:07;5.60;67.30
9425;DHT22;17139;52.140;11.636;2023-01-10T06:32:34;5.60;67.60
9425;DHT22;17139;52.140;11.636;2023-01-10T06:35:02;5.50;67.70
9425;DHT22;17139;52.140;11.636;2023-01-10T06:37:29;5.50;67.70
9425;DHT22;17139;52.140;11.636;2023-01-10T06:39:56;5.50;67.80
9425;DHT22;17139;52.140;11.636;2023-01-10T06:42:24;5.50;67.70
9425;DHT22;17139;52.140;11.636;2023-01-10T06:44:52;5.50;67.80
9425;DHT22;17139;52.140;11.636;2023-01-10T06:47:19;6.40;65.30
9425;DHT22;17139;52.140;11.636;2023-01-10T06:49:46;6.20;66.20
9425;DHT22;17139;52.140;11.636;2023-01-10T06:52:13;6.00;66.70
9425;DHT22;17139;52.140;11.636;2023-01-10T06:54:40;5.90;67.30
9425;DHT22;17139;52.140;11.636;2023-01-10T06:57:07;5.80;67.20
9425;DHT22;17139;52.140;11.636;2023-01-10T06:59:36;5.70;67.50
9425;DHT22;17139;52.140;11.636;2023-01-10T07:02:03;5.70;67.60
9425;DHT22;17139;52.140;11.636;2023-01-10T07:04:30;5.70;67.80
9425;DHT22;17139;52.140;11.636;2023-01-10T07:06:57;5.70;67.80
9425;DHT22;17139;52.140;11.636;2023-01-10T07:09:24;5.80;67.80
9425;DHT22;17139;52.140;11.636;2023-01-10T07:11:54;5.80;67.40
9425;DHT22;17139;52.140;11.636;2023-01-10T07:14:21;5.70;67.50
9425;DHT22;17139;52.140;11.636;2023-01-10T07:16:49;5.70;67.70
9425;DHT22;17139;52.140;11.636;2023-01-10T07:19:16;5.60;67.70
9425;DHT22;17139;52.140;11.636;2023-01-10T07:21:44;5.60;67.80
9425;DHT22;17139;52.140;11.636;2023-01-10T07:24:11;5.50;67.80
9425;DHT22;17139;52.140;11.636;2023-01-10T07:26:38;5.60;68.00
9425;DHT22;17139;52.140;11.636;2023-01-10T07:29:06;5.60;68.00
9425;DHT22;17139;52.140;11.636;2023-01-10T07:31:33;5.50;67.90
9425;DHT22;17139;52.140;11.636;2023-01-10T07:34:01;5.50;68.00
9425;DHT22;17139;52.140;11.636;2023-01-10T07:36:28;6.00;67.40
9425;DHT22;17139;52.140;11.636;2023-01-10T07:38:55;5.90;67.10
9425;DHT22;17139;52.140;11.636;2023-01-10T07:41:22;5.80;67.20
9425;DHT22;17139;52.140;11.636;2023-01-10T07:43:49;5.70;67.50
9425;DHT22;17139;52.140;11.636;2023-01-10T07:46:16;5.60;67.70
9425;DHT22;17139;52.140;11.636;2023-01-10T07:48:43;5.50;67.80
9425;DHT22;17139;52.140;11.636;2023-01-10T07:51:12;5.40;67.80
9425;DHT22;17139;52.140;11.636;2023-01-10T07:53:40;5.40;68.10
9425;DHT22;17139;52.140;11.636;2023-01-10T07:56:07;5.30;68.20
9425;DHT22;17139;52.140;11.636;2023-01-10T07:58:34;5.30;68.40
9425;DHT22;17139;52.140;11.636;2023-01-10T08:01:03;5.20;68.40
9425;DHT22;17139;52.140;11.636;2023-01-10T08:03:31;5.30;68.50
9425;DHT22;17139;52.140;11.636;2023-01-10T08:05:59;5.30;68.40
9425;DHT22;17139;52.140;11.636;2023-01-10T08:08:29;5.30;68.30
9425;DHT22;17139;52.140;11.636;2023-01-10T08:10:56;5.40;68.30
9425;DHT22;17139;52.140;11.636;2023-01-10T08:13:24;5.30;68.10
9425;DHT22;17139;52.140;11.636;2023-01-10T08:15:51;5.90;67.30
9425;DHT22;17139;52.140;11.636;2023-01-10T08:18:19;6.40;64.50
9425;DHT22;17139;52.140;11.636;2023-01-10T08:20:48;6.20;65.80
9425;DHT22;17139;52.140;11.636;2023-01-10T08:23:15;5.90;66.60
9425;DHT22;17139;52.140;11.636;2023-01-10T08:25:44;5.80;67.20
9425;DHT22;17139;52.140;11.636;2023-01-10T08:28:12;5.80;67.20
9425;DHT22;17139;52.140;11.636;2023-01-10T08:30:39;5.80;67.60
9425;DHT22;17139;52.140;11.636;2023-01-10T08:33:07;5.70;67.70
9425;DHT22;17139;52.140;11.636;2023-01-10T08:35:39;5.70;67.70
9425;DHT22;17139;52.140;11.636;2023-01-10T08:38:07;5.70;67.70
9425;DHT22;17139;52.140;11.636;2023-01-10T08:40:34;5.70;67.80
9425;DHT22;17139;52.140;11.636;2023-01-10T08:43:04;5.80;68.50
9425;DHT22;17139;52.140;11.636;2023-01-10T08:45:33;5.80;67.50
9425;DHT22;17139;52.140;11.636;2023-01-10T08:48:00;5.80;67.60
9425;DHT22;17139;52.140;11.636;2023-01-10T08:50:28;6.10;67.10
9425;DHT22;17139;52.140;11.636;2023-01-10T08:52:56;6.00;66.80
9425;DHT22;17139;52.140;11.636;2023-01-10T08:55:24;5.90;67.30
9425;DHT22;17139;52.140;11.636;2023-01-10T08:57:52;5.80;67.20
9425;DHT22;17139;52.140;11.636;2023-01-10T09:00:21;5.80;67.30
9425;DHT22;17139;52.140;11.636;2023-01-10T09:02:48;5.80;67.50
9425;DHT22;17139;52.140;11.636;2023-01-10T09:05:15;5.80;67.60
9425;DHT22;17139;52.140;11.636;2023-01-10T09:07:42;5.80;67.70
9425;DHT22;17139;52.140;11.636;2023-01-10T09:10:11;5.80;68.40
9425;DHT22;17139;52.140;11.636;2023-01-10T09:12:38;5.80;67.70
9425;DHT22;17139;52.140;11.636;2023-01-10T09:15:23;5.80;67.70
9425;DHT22;17139;52.140;11.636;2023-01-10T09:17:53;5.80;67.70
9425;DHT22;17139;52.140;11.636;2023-01-10T09:20:21;5.90;67.30
9425;DHT22;17139;52.140;11.636;2023-01-10T09:22:49;6.20;66.90
9425;DHT22;17139;52.140;11.636;2023-01-10T09:25:16;6.10;66.70
9425;DHT22;17139;52.140;11.636;2023-01-10T09:27:43;6.10;67.10
9425;DHT22;17139;52.140;11.636;2023-01-10T09:30:11;6.10;67.40
9425;DHT22;17139;52.140;11.636;2023-01-10T09:32:40;6.10;67.50
9425;DHT22;17139;52.140;11.636;2023-01-10T09:35:07;6.10;67.50
9425;DHT22;17139;52.140;11.636;2023-01-10T09:37:34;6.10;67.50
9425;DHT22;17139;52.140;11.636;2023-01-10T09:40:04;6.10;67.50
9425;DHT22;17139;52.140;11.636;2023-01-10T09:42:55;6.20;67.60
9425;DHT22;17139;52.140;11.636;2023-01-10T09:45:34;6.20;67.50
9425;DHT22;17139;52.140;11.636;2023-01-10T09:48:08;6.20;67.60
9425;DHT22;17139;52.140;11.636;2023-01-10T09:50:43;6.80;64.70
9425;DHT22;17139;52.140;11.636;2023-01-10T09:53:16;6.70;64.80
9425;DHT22;17139;52.140;11.636;2023-01-10T09:55:51;6.60;65.30
9425;DHT22;17139;52.140;11.636;2023-01-10T09:58:19;6.50;65.70
9425;DHT22;17139;52.140;11.636;2023-01-10T10:00:55;6.50;65.90
9425;DHT22;17139;52.140;11.636;2023-01-10T10:03:27;6.50;66.00
9425;DHT22;17139;52.140;11.636;2023-01-10T10:05:55;6.50;66.10
9425;DHT22;17139;52.140;11.636;2023-01-10T10:08:23;6.50;66.20
9425;DHT22;17139;52.140;11.636;2023-01-10T10:10:59;6.50;66.20
9425;DHT22;17139;52.140;11.636;2023-01-10T10:13:39;6.50;66.10
9425;DHT22;17139;52.140;11.636;2023-01-10T10:16:15;6.60;65.80
9425;DHT22;17139;52.140;11.636;2023-01-10T10:18:53;7.00;64.50
9425;DHT22;17139;52.140;11.636;2023-01-10T10:21:27;6.80;64.80
9425;DHT22;17139;52.140;11.636;2023-01-10T10:24:12;6.60;65.50
9425;DHT22;17139;52.140;11.636;2023-01-10T10:26:47;6.50;66.10
9425;DHT22;17139;52.140;11.636;2023-01-10T10:29:44;6.40;67.20
9425;DHT22;17139;52.140;11.636;2023-01-10T10:32:29;6.30;67.60
9425;DHT22;17139;52.140;11.636;2023-01-10T10:35:07;6.40;66.70
9425;DHT22;17139;52.140;11.636;2023-01-10T10:37:41;6.40;66.70
9425;DHT22;17139;52.140;11.636;2023-01-10T10:40:16;6.40;66.70
9425;DHT22;17139;52.140;11.636;2023-01-10T10:42:46;6.80;65.60
9425;DHT22;17139;52.140;11.636;2023-01-10T10:45:18;7.50;63.60
9425;DHT22;17139;52.140;11.636;2023-01-10T10:47:49;7.30;64.30
9425;DHT22;17139;52.140;11.636;2023-01-10T10:50:25;7.20;64.90
9425;DHT22;17139;52.140;11.636;2023-01-10T10:52:54;7.10;65.10
9425;DHT22;17139;52.140;11.636;2023-01-10T10:55:30;7.10;65.40
9425;DHT22;17139;52.140;11.636;2023-01-10T10:58:00;7.10;65.50
9425;DHT22;17139;52.140;11.636;2023-01-10T11:00:29;7.10;65.60
9425;DHT22;17139;52.140;11.636;2023-01-10T11:03:00;7.10;65.70
9425;DHT22;17139;52.140;11.636;2023-01-10T11:05:31;7.10;65.70
9425;DHT22;17139;52.140;11.636;2023-01-10T11:08:04;7.40;65.00
9425;DHT22;17139;52.140;11.636;2023-01-10T11:10:34;7.90;63.30
9425;DHT22;17139;52.140;11.636;2023-01-10T11:13:03;7.80;64.00
9425;DHT22;17139;52.140;11.636;2023-01-10T11:15:36;7.60;64.60
9425;DHT22;17139;52.140;11.636;2023-01-10T11:18:04;7.50;64.90
9425;DHT22;17139;52.140;11.636;2023-01-10T11:20:33;7.50;65.30
9425;DHT22;17139;52.140;11.636;2023-01-10T11:23:01;7.50;65.40
9425;DHT22;17139;52.140;11.636;2023-01-10T11:25:28;7.50;65.50
9425;DHT22;17139;52.140;11.636;2023-01-10T11:27:57;7.50;65.50
9425;DHT22;17139;52.140;11.636;2023-01-10T11:30:27;7.50;65.60
9425;DHT22;17139;52.140;11.636;2023-01-10T11:32:58;7.60;65.10
9425;DHT22;17139;52.140;11.636;2023-01-10T11:35:29;7.60;65.10
9425;DHT22;17139;52.140;11.636;2023-01-10T11:38:03;7.60;65.30
9425;DHT22;17139;52.140;11.636;2023-01-10T11:40:33;7.50;65.30
9425;DHT22;17139;52.140;11.636;2023-01-10T11:43:23;7.50;65.50
9425;DHT22;17139;52.140;11.636;2023-01-10T11:45:53;8.10;63.20
9425;DHT22;17139;52.140;11.636;2023-01-10T11:48:22;7.80;64.10
9425;DHT22;17139;52.140;11.636;2023-01-10T11:50:51;7.70;64.70
9425;DHT22;17139;52.140;11.636;2023-01-10T11:53:37;7.60;65.10
9425;DHT22;17139;52.140;11.636;2023-01-10T11:56:06;8.40;62.30
9425;DHT22;17139;52.140;11.636;2023-01-10T11:58:35;8.00;63.30
9425;DHT22;17139;52.140;11.636;2023-01-10T12:01:04;7.90;64.30
9425;DHT22;17139;52.140;11.636;2023-01-10T12:03:33;7.70;64.80
9425;DHT22;17139;52.140;11.636;2023-01-10T12:06:05;7.60;65.10
9425;DHT22;17139;52.140;11.636;2023-01-10T12:08:36;7.60;65.40
9425;DHT22;17139;52.140;11.636;2023-01-10T12:11:06;8.10;63.20
9425;DHT22;17139;52.140;11.636;2023-01-10T12:13:46;8.00;63.80
9425;DHT22;17139;52.140;11.636;2023-01-10T12:16:15;7.80;64.50
9425;DHT22;17139;52.140;11.636;2023-01-10T12:18:43;7.70;65.00
9425;DHT22;17139;52.140;11.636;2023-01-10T12:21:13;7.70;65.30
9425;DHT22;17139;52.140;11.636;2023-01-10T12:23:44;7.70;65.50
9425;DHT22;17139;52.140;11.636;2023-01-10T12:26:12;7.70;65.50
9425;DHT22;17139;52.140;11.636;2023-01-10T12:28:42;7.70;65.60
9425;DHT22;17139;52.140;11.636;2023-01-10T12:31:12;7.70;66.20
9425;DHT22;17139;52.140;11.636;2023-01-10T12:33:43;7.80;65.60
9425;DHT22;17139;52.140;11.636;2023-01-10T12:36:25;7.80;65.60
9425;DHT22;17139;52.140;11.636;2023-01-10T12:39:02;7.90;64.70
9425;DHT22;17139;52.140;11.636;2023-01-10T12:41:37;7.90;64.90
9425;DHT22;17139;52.140;11.636;2023-01-10T12:44:30;7.80;65.20
9425;DHT22;17139;52.140;11.636;2023-01-10T12:47:02;7.80;65.60
9425;DHT22;17139;52.140;11.636;2023-01-10T12:49:35;7.80;65.60
9425;DHT22;17139;52.140;11.636;2023-01-10T12:52:06;7.80;65.60
9425;DHT22;17139;52.140;11.636;2023-01-10T12:54:38;7.80;65.50
9425;DHT22;17139;52.140;11.636;2023-01-10T12:57:16;8.00;64.90
9425;DHT22;17139;52.140;11.636;2023-01-10T12:59:46;8.00;65.00
9425;DHT22;17139;52.140;11.636;2023-01-10T13:02:17;8.20;64.20
9425;DHT22;17139;52.140;11.636;2023-01-10T13:04:47;8.10;64.50
9425;DHT22;17139;52.140;11.636;2023-01-10T13:07:16;8.00;65.10
9425;DHT22;17139;52.140;11.636;2023-01-10T13:09:46;7.90;65.20
9425;DHT22;17139;52.140;11.636;2023-01-10T13:12:17;7.90;65.40
9425;DHT22;17139;52.140;11.636;2023-01-10T13:14:50;7.90;65.50
9425;DHT22;17139;52.140;11.636;2023-01-10T13:17:27;7.90;65.60
9425;DHT22;17139;52.140;11.636;2023-01-10T13:23:00;7.80;65.60
9425;DHT22;17139;52.140;11.636;2023-01-10T13:25:39;8.40;63.20
9425;DHT22;17139;52.140;11.636;2023-01-10T13:28:15;8.20;63.80
9425;DHT22;17139;52.140;11.636;2023-01-10T13:30:50;8.00;64.60
9425;DHT22;17139;52.140;11.636;2023-01-10T13:33:21;7.80;65.00
9425;DHT22;17139;52.140;11.636;2023-01-10T13:35:49;7.70;65.50
9425;DHT22;17139;52.140;11.636;2023-01-10T13:38:19;7.60;65.50
9425;DHT22;17139;52.140;11.636;2023-01-10T13:41:03;7.50;65.60
9425;DHT22;17139;52.140;11.636;2023-01-10T13:43:38;7.50;65.70
9425;DHT22;17139;52.140;11.636;2023-01-10T13:46:33;7.40;65.70
9425;DHT22;17139;52.140;11.636;2023-01-10T13:55:49;7.70;64.50
9425;DHT22;17139;52.140;11.636;2023-01-10T13:58:41;7.60;65.10
9425;DHT22;17139;52.140;11.636;2023-01-10T14:01:27;7.50;65.40
9425;DHT22;17139;52.140;11.636;2023-01-10T14:04:18;7.40;65.70
9425;DHT22;17139;52.140;11.636;2023-01-10T14:06:52;7.40;65.80
9425;DHT22;17139;52.140;11.636;2023-01-10T14:09:34;7.30;65.80
9425;DHT22;17139;52.140;11.636;2023-01-10T14:12:04;7.30;65.80
9425;DHT22;17139;52.140;11.636;2023-01-10T14:14:36;8.00;62.80
9425;DHT22;17139;52.140;11.636;2023-01-10T14:17:20;8.60;60.50
9425;DHT22;17139;52.140;11.636;2023-01-10T14:19:58;8.20;62.20
9425;DHT22;17139;52.140;11.636;2023-01-10T14:22:27;7.90;63.50
9425;DHT22;17139;52.140;11.636;2023-01-10T14:24:57;7.80;64.30
9425;DHT22;17139;52.140;11.636;2023-01-10T14:27:27;7.60;64.60
9425;DHT22;17139;52.140;11.636;2023-01-10T14:29:59;7.50;64.80
9425;DHT22;17139;52.140;11.636;2023-01-10T14:32:32;7.40;64.90
9425;DHT22;17139;52.140;11.636;2023-01-10T14:35:01;7.40;65.20
9425;DHT22;17139;52.140;11.636;2023-01-10T14:37:32;7.60;64.20
9425;DHT22;17139;52.140;11.636;2023-01-10T14:40:05;7.60;64.50
9425;DHT22;17139;52.140;11.636;2023-01-10T14:42:36;7.50;64.90
9425;DHT22;17139;52.140;11.636;2023-01-10T14:45:16;7.40;65.20
9425;DHT22;17139;52.140;11.636;2023-01-10T14:47:45;7.40;65.20
9425;DHT22;17139;52.140;11.636;2023-01-10T14:50:25;7.30;65.40
9425;DHT22;17139;52.140;11.636;2023-01-10T14:52:54;7.30;65.40
9425;DHT22;17139;52.140;11.636;2023-01-10T14:55:22;7.20;65.60
9425;DHT22;17139;52.140;11.636;2023-01-10T14:57:53;7.20;65.70
9425;DHT22;17139;52.140;11.636;2023-01-10T15:00:26;7.20;65.80
9425;DHT22;17139;52.140;11.636;2023-01-10T15:02:54;7.10;65.80
9425;DHT22;17139;52.140;11.636;2023-01-10T15:05:25;7.10;65.90
9425;DHT22;17139;52.140;11.636;2023-01-10T15:07:53;7.00;65.90
9425;DHT22;17139;52.140;11.636;2023-01-10T15:10:23;7.00;65.90
9425;DHT22;17139;52.140;11.636;2023-01-10T15:12:52;7.00;65.90
9425;DHT22;17139;52.140;11.636;2023-01-10T15:15:26;7.00;66.00
9425;DHT22;17139;52.140;11.636;2023-01-10T15:17:54;7.30;64.60
9425;DHT22;17139;52.140;11.636;2023-01-10T15:20:22;7.80;62.90
9425;DHT22;17139;52.140;11.636;2023-01-10T15:22:54;7.60;63.50
9425;DHT22;17139;52.140;11.636;2023-01-10T15:25:27;7.40;64.40
9425;DHT22;17139;52.140;11.636;2023-01-10T15:27:56;7.20;64.90
9425;DHT22;17139;52.140;11.636;2023-01-10T15:30:26;7.60;63.30
9425;DHT22;17139;52.140;11.636;2023-01-10T15:32:56;7.50;63.80
9425;DHT22;17139;52.140;11.636;2023-01-10T15:35:26;7.20;64.50
9425;DHT22;17139;52.140;11.636;2023-01-10T15:37:56;7.10;65.00
9425;DHT22;17139;52.140;11.636;2023-01-10T15:40:30;7.00;65.30
9425;DHT22;17139;52.140;11.636;2023-01-10T15:43:20;7.10;65.00
9425;DHT22;17139;52.140;11.636;2023-01-10T15:45:51;7.00;64.90
9425;DHT22;17139;52.140;11.636;2023-01-10T15:48:31;6.90;65.40
9425;DHT22;17139;52.140;11.636;2023-01-10T15:50:59;6.80;65.50
9425;DHT22;17139;52.140;11.636;2023-01-10T15:53:54;6.80;65.70
9425;DHT22;17139;52.140;11.636;2023-01-10T15:56:27;6.80;65.80
9425;DHT22;17139;52.140;11.636;2023-01-10T15:58:58;6.70;66.00
9425;DHT22;17139;52.140;11.636;2023-01-10T16:01:27;6.70;66.00
9425;DHT22;17139;52.140;11.636;2023-01-10T16:03:56;6.70;65.90
9425;DHT22;17139;52.140;11.636;2023-01-10T16:06:26;7.20;64.00
9425;DHT22;17139;52.140;11.636;2023-01-10T16:08:56;7.90;61.60
9425;DHT22;17139;52.140;11.636;2023-01-10T16:11:27;7.60;62.60
9425;DHT22;17139;52.140;11.636;2023-01-10T16:14:13;7.30;63.60
9425;DHT22;17139;52.140;11.636;2023-01-10T16:16:41;7.10;64.50
9425;DHT22;17139;52.140;11.636;2023-01-10T16:19:08;7.00;64.80
9425;DHT22;17139;52.140;11.636;2023-01-10T16:21:38;6.90;65.20
9425;DHT22;17139;52.140;11.636;2023-01-10T16:24:16;6.80;65.50
9425;DHT22;17139;52.140;11.636;2023-01-10T16:26:44;7.10;64.30